Time;durP1;ratioP1;P1;durP2;ratioP2;P2;SDS_P1;SDS_P2;PMS_P1;PMS_P2;Temp;Humidity;BMP_temperature;BMP_pressure;BME280_temperature;BME280_humidity;BME280_pressure;Samples;Min_cycle;Max_cycle;Signal;HPM_P1;HPM_P2
2021/12/21 00:01:24;;;;;;;4.57;2.70;;;14.40;61.20;;;;;;5031649;28;20374;-72
2021/12/21 00:03:52;;;;;;;4.13;2.55;;;14.30;56.50;;;;;;5034512;28;20140;-72
2021/12/21 00:06:19;;;;;;;4.15;2.80;;;14.30;63.40;;;;;;5051207;28;20049;-72
2021/12/21 00:08:45;;;;;;;4.05;2.60;;;14.40;63.40;;;;;;5050519;28;20702;-72
2021/12/21 00:11:13;;;;;;;5.15;2.60;;;;;;;;;;5050548;28;20073;-72
2021/12/21 00:13:54;;;;;;;3.92;2.65;;;14.30;63.40;;;;;;5051480;28;20131;-72
2021/12/21 00:16:43;;;;;;;3.60;2.60;;;14.20;63.40;;;;;;5050384;28;20056;-72
2021/12/21 00:19:25;;;;;;;4.15;2.83;;;14.20;63.70;;;;;;5030026;28;20057;-72
2021/12/21 00:21:58;;;;;;;3.95;2.70;;;;;;;;;;5030329;28;20064;-72
2021/12/21 00:24:31;;;;;;;5.78;2.80;;;14.10;63.40;;;;;;5030138;28;20112;-72
2021/12/21 00:27:00;;;;;;;3.35;2.47;;;14.20;63.70;;;;;;5030306;28;20099;-72
2021/12/21 00:29:27;;;;;;;3.85;2.67;;;14.10;57.40;;;;;;5030404;28;20138;-72
2021/12/21 00:31:53;;;;;;;3.80;2.50;;;14.00;63.70;;;;;;5035608;28;20124;-72
2021/12/21 00:34:25;;;;;;;3.95;2.60;;;14.00;56.60;;;;;;5050211;28;20132;-72
2021/12/21 00:36:52;;;;;;;3.53;2.60;;;14.10;63.90;;;;;;5050111;28;20057;-72
2021/12/21 00:39:19;;;;;;;4.03;2.83;;;13.80;57.30;;;;;;5050204;28;20133;-72
2021/12/21 00:41:45;;;;;;;3.80;2.88;;;14.00;63.50;;;;;;5051244;28;20077;-72
2021/12/21 00:44:13;;;;;;;4.57;2.80;;;;;;;;;;5050265;28;20533;-72
2021/12/21 00:46:39;;;;;;;3.75;2.55;;;14.00;63.90;;;;;;5041204;28;20141;-71
2021/12/21 00:49:14;;;;;;;3.47;2.40;;;14.00;63.60;;;;;;5030033;28;20410;-72
2021/12/21 00:51:42;;;;;;;4.07;2.95;;;13.90;56.70;;;;;;5031363;28;20058;-71
2021/12/21 00:54:10;;;;;;;5.28;2.75;;;;;;;;;;5029984;28;20419;-72
2021/12/21 00:56:36;;;;;;;6.60;2.72;;;13.80;63.70;;;;;;5029762;28;20136;-72
2021/12/21 00:59:03;;;;;;;4.72;2.83;;;;;;;;;;5030049;28;20577;-71
2021/12/21 01:01:30;;;;;;;3.30;2.50;;;13.80;63.50;;;;;;5042312;28;20075;-72
2021/12/21 01:03:58;;;;;;;4.38;2.45;;;13.50;63.70;;;;;;5051147;28;20142;-72
2021/12/21 01:06:37;;;;;;;6.18;2.60;;;13.80;63.70;;;;;;5052471;28;20418;-72
2021/12/21 01:09:13;;;;;;;3.35;2.50;;;13.80;63.70;;;;;;5054783;28;20119;-72
2021/12/21 01:11:43;;;;;;;4.15;2.88;;;;;;;;;;5053589;28;20109;-70
2021/12/21 01:14:42;;;;;;;3.92;2.63;;;14.00;64.10;;;;;;5053571;28;20539;-72
2021/12/21 01:17:12;;;;;;;5.10;2.70;;;;;;;;;;5013088;28;20064;-71
2021/12/21 01:19:43;;;;;;;3.97;2.55;;;13.70;64.00;;;;;;5013697;28;20490;-72
2021/12/21 01:22:17;;;;;;;2.95;2.42;;;;;;;;;;5013501;28;20530;-70
2021/12/21 01:25:12;;;;;;;4.15;2.70;;;13.90;63.80;;;;;;5013425;28;20463;-72
2021/12/21 01:27:52;;;;;;;4.05;2.78;;;13.80;64.00;;;;;;5013413;28;20077;-72
2021/12/21 01:30:31;;;;;;;4.10;2.58;;;13.70;61.50;;;;;;5035117;28;20119;-72
2021/12/21 01:33:05;;;;;;;3.70;2.50;;;13.80;64.00;;;;;;5052947;28;20072;-72
2021/12/21 01:35:36;;;;;;;4.22;2.70;;;;;;;;;;5054058;28;20056;-72
2021/12/21 01:38:09;;;;;;;3.30;2.40;;;;;;;;;;5053107;28;20461;-72
2021/12/21 01:40:45;;;;;;;4.13;2.60;;;13.70;63.80;;;;;;5052777;28;20106;-72
2021/12/21 01:43:19;;;;;;;3.30;2.60;;;13.60;63.70;;;;;;5052588;28;20052;-72
2021/12/21 01:51:16;;;;;;;3.37;2.37;;;13.60;63.80;;;;;;5034068;28;20041;-72
2021/12/21 01:53:43;;;;;;;3.60;2.53;;;;;;;;;;5032927;28;20136;-72
2021/12/21 01:56:11;;;;;;;3.40;2.50;;;13.60;61.50;;;;;;5032452;28;20147;-72
2021/12/21 01:58:39;;;;;;;4.40;2.47;;;13.50;63.80;;;;;;5038825;28;20474;-72
2021/12/21 02:01:06;;;;;;;4.05;2.50;;;13.70;63.60;;;;;;5052705;28;20049;-72
2021/12/21 02:03:33;;;;;;;4.88;2.60;;;13.70;63.60;;;;;;5052311;28;20132;-72
2021/12/21 02:06:00;;;;;;;3.97;2.60;;;;;;;;;;5052363;28;20136;-72
2021/12/21 02:08:27;;;;;;;4.15;2.55;;;;;;;;;;5052261;28;20553;-72
2021/12/21 02:10:59;;;;;;;3.72;2.60;;;13.60;63.50;;;;;;5052431;28;20056;-72
2021/12/21 02:13:32;;;;;;;4.63;2.92;;;13.50;61.80;;;;;;5043143;28;20075;-72
2021/12/21 02:15:58;;;;;;;3.85;2.55;;;13.60;63.70;;;;;;5031835;28;20453;-72
2021/12/21 02:18:45;;;;;;;4.75;2.53;;;;;;;;;;5032347;28;20132;-71
2021/12/21 02:21:28;;;;;;;4.45;2.90;;;13.60;56.10;;;;;;5032402;28;20057;-72
2021/12/21 02:24:00;;;;;;;3.38;2.50;;;13.50;63.60;;;;;;5032423;28;20486;-72
2021/12/21 02:26:47;;;;;;;3.38;2.72;;;13.50;63.30;;;;;;5031938;28;20057;-72
2021/12/21 02:29:17;;;;;;;3.45;2.70;;;13.60;63.60;;;;;;5030045;28;20414;-72
2021/12/21 02:31:46;;;;;;;4.60;3.10;;;13.60;56.00;;;;;;5033192;28;20080;-70
2021/12/21 02:34:12;;;;;;;5.07;3.03;;;13.40;63.10;;;;;;5032135;28;20574;-72
2021/12/21 02:36:41;;;;;;;5.07;2.63;;;13.60;63.40;;;;;;5031798;28;20053;-72
2021/12/21 02:39:08;;;;;;;3.28;2.50;;;13.60;63.20;;;;;;5031744;28;20141;-72
2021/12/21 02:41:35;;;;;;;3.88;2.85;;;13.90;63.60;;;;;;5034737;28;20153;-72
2021/12/21 02:44:02;;;;;;;4.38;2.90;;;;;;;;;;5051847;28;20057;-71
2021/12/21 02:46:29;;;;;;;3.80;2.63;;;13.50;63.30;;;;;;5052651;28;20051;-72
2021/12/21 02:48:56;;;;;;;3.97;2.78;;;13.80;63.50;;;;;;5051144;28;20136;-72
2021/12/21 02:51:23;;;;;;;3.95;2.80;;;13.70;63.20;;;;;;5051715;28;20141;-72
2021/12/21 02:53:51;;;;;;;3.50;2.80;;;13.80;63.50;;;;;;5051613;28;20049;-72
2021/12/21 02:56:18;;;;;;;4.35;2.90;;;13.50;63.10;;;;;;5045702;28;20140;-72
2021/12/21 02:58:45;;;;;;;3.90;2.90;;;13.70;63.30;;;;;;5031519;28;20092;-72
2021/12/21 03:01:12;;;;;;;3.85;2.83;;;13.70;63.10;;;;;;5031650;28;20060;-72
2021/12/21 03:03:39;;;;;;;4.32;2.90;;;13.80;63.30;;;;;;5014734;28;20045;-72
2021/12/21 03:06:11;;;;;;;3.97;2.80;;;13.60;63.00;;;;;;5030860;28;20137;-72
2021/12/21 03:08:41;;;;;;;4.25;2.92;;;13.80;63.10;;;;;;5032420;28;20111;-72
2021/12/21 03:11:16;;;;;;;6.10;3.08;;;13.40;57.40;;;;;;5039483;28;20052;-72
2021/12/21 03:14:03;;;;;;;4.43;3.25;;;;;;;;;;5052294;28;20142;-72
2021/12/21 03:16:34;;;;;;;4.63;2.95;;;13.60;63.10;;;;;;5051170;28;20053;-72
2021/12/21 03:19:01;;;;;;;4.20;3.20;;;13.40;62.90;;;;;;5051139;28;20132;-72
2021/12/21 03:21:28;;;;;;;4.55;3.08;;;13.80;63.00;;;;;;5050967;28;20132;-72
2021/12/21 03:23:55;;;;;;;6.40;3.33;;;13.40;62.60;;;;;;5050796;28;20045;-72
2021/12/21 03:26:23;;;;;;;4.40;3.50;;;13.70;55.60;;;;;;5035617;28;20502;-72
2021/12/21 03:28:50;;;;;;;4.68;3.20;;;13.60;63.10;;;;;;5030673;28;20132;-72
2021/12/21 03:31:17;;;;;;;5.13;3.17;;;13.70;62.90;;;;;;5031163;28;20132;-72
2021/12/21 03:33:44;;;;;;;4.50;3.00;;;13.70;63.10;;;;;;5030830;28;20164;-72
2021/12/21 03:36:10;;;;;;;4.05;2.88;;;13.80;63.00;;;;;;5041644;28;20139;-72
2021/12/21 03:38:40;;;;;;;5.28;3.50;;;;;;;;;;5050866;28;20132;-71
2021/12/21 03:41:11;;;;;;;4.68;3.45;;;13.60;63.10;;;;;;5050650;28;20136;-72
2021/12/21 03:43:39;;;;;;;4.20;3.30;;;13.70;57.60;;;;;;5050647;28;20048;-72
2021/12/21 03:46:09;;;;;;;5.22;3.28;;;;;;;;;;5050314;28;20111;-72
2021/12/21 03:48:37;;;;;;;4.00;2.97;;;13.80;62.90;;;;;;5050756;28;20061;-72
2021/12/21 03:51:04;;;;;;;3.90;3.00;;;;;;;;;;5035800;28;20137;-71
2021/12/21 03:53:31;;;;;;;5.93;3.40;;;;;;;;;;5030530;28;20128;-72
2021/12/21 03:56:24;;;;;;;4.53;2.95;;;;;;;;;;5030298;28;20140;-71
2021/12/21 03:58:53;;;;;;;4.20;3.05;;;13.60;62.70;;;;;;5030619;28;20053;-72
2021/12/21 04:01:20;;;;;;;4.22;3.22;;;;;;;;;;5031748;28;20049;-71
2021/12/21 04:03:47;;;;;;;4.75;3.58;;;13.70;62.90;;;;;;5030448;28;20490;-72
2021/12/21 04:06:13;;;;;;;5.40;3.45;;;13.70;62.90;;;;;;5032652;28;20071;-72
2021/12/21 04:08:41;;;;;;;4.80;3.30;;;13.70;56.50;;;;;;5030572;28;20128;-72
2021/12/21 04:11:07;;;;;;;4.50;3.40;;;13.50;62.60;;;;;;5013837;28;20128;-72
2021/12/21 04:13:34;;;;;;;4.60;3.53;;;;;;;;;;5030675;28;20133;-72
2021/12/21 04:16:04;;;;;;;3.75;3.20;;;13.80;55.30;;;;;;5030417;28;20566;-72
2021/12/21 04:18:35;;;;;;;4.40;3.70;;;13.80;62.90;;;;;;5030526;28;20060;-72
2021/12/21 04:21:02;;;;;;;5.00;3.45;;;13.80;62.90;;;;;;5031900;28;20068;-72
2021/12/21 04:23:29;;;;;;;4.47;3.42;;;;;;;;;;5032569;28;20074;-72
2021/12/21 04:25:56;;;;;;;5.05;3.60;;;;;;;;;;5030042;28;20145;-72
2021/12/21 04:28:23;;;;;;;5.15;3.45;;;13.70;62.60;;;;;;5031453;28;20142;-72
2021/12/21 04:30:50;;;;;;;5.78;3.70;;;;;;;;;;5030519;28;20140;-72
2021/12/21 04:33:18;;;;;;;4.45;3.17;;;13.90;60.30;;;;;;5030407;28;20088;-72
2021/12/21 04:35:46;;;;;;;3.90;3.20;;;;;;;;;;5029970;28;20144;-72
2021/12/21 04:38:20;;;;;;;6.32;3.90;;;13.60;61.50;;;;;;5030253;28;20475;-72
2021/12/21 04:40:50;;;;;;;5.95;3.75;;;13.70;56.60;;;;;;5035877;28;20057;-72
2021/12/21 04:43:17;;;;;;;4.82;3.60;;;;;;;;;;5040600;28;20129;-71
2021/12/21 04:45:45;;;;;;;5.60;3.80;;;13.90;62.50;;;;;;5033783;28;20773;-72
2021/12/21 04:48:12;;;;;;;4.45;3.47;;;14.00;62.70;;;;;;5033775;28;20137;-72
2021/12/21 04:50:40;;;;;;;7.35;3.97;;;13.90;62.70;;;;;;5033776;28;20477;-72
2021/12/21 04:53:07;;;;;;;5.10;3.80;;;13.60;62.20;;;;;;5034019;28;20132;-72
2021/12/21 04:55:34;;;;;;;4.82;3.20;;;;;;;;;;5033793;28;20132;-72
2021/12/21 04:58:01;;;;;;;6.05;3.35;;;14.10;62.70;;;;;;5048173;28;20136;-72
2021/12/21 05:00:28;;;;;;;6.28;3.67;;;;;;;;;;5051218;28;20124;-72
2021/12/21 05:02:54;;;;;;;5.20;3.40;;;13.80;62.30;;;;;;5033683;28;20550;-72
2021/12/21 05:05:21;;;;;;;4.20;2.92;;;13.70;62.20;;;;;;5033675;28;20137;-68
2021/12/21 05:07:54;;;;;;;3.85;3.17;;;13.90;62.20;;;;;;5034751;28;20077;-72
2021/12/21 05:10:21;;;;;;;5.03;3.55;;;13.80;62.40;;;;;;5034525;28;20490;-72
2021/12/21 05:12:48;;;;;;;5.55;3.58;;;;;;;;;;5033449;28;20077;-72
2021/12/21 05:15:14;;;;;;;5.10;3.55;;;13.80;62.10;;;;;;5039017;28;20144;-72
2021/12/21 05:17:42;;;;;;;3.80;3.03;;;;;;;;;;5053301;28;20139;-72
2021/12/21 05:20:09;;;;;;;4.85;3.53;;;;;;;;;;5053108;28;20144;-72
2021/12/21 05:22:36;;;;;;;5.32;3.63;;;;;;;;;;5048554;28;20168;-72
2021/12/21 05:25:06;;;;;;;4.80;3.50;;;13.90;62.20;;;;;;5033488;28;20479;-72
2021/12/21 05:27:32;;;;;;;6.03;3.28;;;13.80;62.20;;;;;;5033228;28;20141;-72
2021/12/21 05:30:00;;;;;;;3.90;3.08;;;;;;;;;;5033263;28;20138;-72
2021/12/21 05:32:26;;;;;;;3.83;3.20;;;13.90;58.20;;;;;;5045139;28;20152;-72
2021/12/21 05:34:53;;;;;;;5.32;4.00;;;13.80;62.30;;;;;;5052990;28;20056;-73
2021/12/21 05:37:20;;;;;;;3.63;3.10;;;13.90;62.50;;;;;;5052918;28;20136;-72
2021/12/21 05:39:56;;;;;;;4.65;3.55;;;;;;;;;;5052785;28;20087;-72
2021/12/21 05:42:24;;;;;;;4.20;3.00;;;13.80;58.10;;;;;;5053004;28;20521;-73
2021/12/21 05:44:51;;;;;;;5.15;3.47;;;;;;;;;;5052838;28;20143;-72
2021/12/21 05:47:18;;;;;;;5.82;3.25;;;13.70;57.10;;;;;;5052794;28;20049;-72
2021/12/21 05:49:45;;;;;;;4.40;3.17;;;;;;;;;;5035077;28;20136;-70
2021/12/21 05:52:12;;;;;;;5.68;3.70;;;13.90;62.40;;;;;;5032595;28;20561;-72
2021/12/21 05:54:39;;;;;;;4.50;3.45;;;;;;;;;;5032989;28;20148;-70
2021/12/21 05:57:06;;;;;;;5.22;3.67;;;13.90;62.10;;;;;;5032324;28;20144;-72
2021/12/21 05:59:34;;;;;;;5.95;3.35;;;13.80;54.70;;;;;;5032799;28;20140;-71
2021/12/21 06:02:01;;;;;;;4.57;3.45;;;;;;;;;;5032508;28;20070;-71
2021/12/21 06:04:28;;;;;;;5.03;3.25;;;;;;;;;;5032199;28;20133;-72
2021/12/21 06:06:55;;;;;;;5.05;3.35;;;;;;;;;;5033239;28;20053;-72
2021/12/21 06:09:22;;;;;;;4.47;3.15;;;13.90;62.00;;;;;;5032571;28;20521;-72
2021/12/21 06:12:01;;;;;;;4.55;3.20;;;;;;;;;;5032555;28;20053;-71
2021/12/21 06:14:55;;;;;;;4.40;3.47;;;13.80;56.00;;;;;;5032379;28;20094;-72
2021/12/21 06:23:06;;;;;;;4.32;3.10;;;13.70;62.00;;;;;;5033299;28;20402;-72
2021/12/21 06:25:37;;;;;;;4.50;3.20;;;13.90;62.30;;;;;;5032095;28;20140;-72
2021/12/21 06:28:05;;;;;;;4.60;3.10;;;13.80;54.50;;;;;;5032299;28;20049;-72
2021/12/21 06:30:32;;;;;;;3.80;3.08;;;13.70;57.30;;;;;;5031962;28;20418;-72
2021/12/21 06:33:01;;;;;;;5.47;3.60;;;13.80;54.50;;;;;;5033323;28;20443;-72
2021/12/21 06:35:28;;;;;;;3.65;2.95;;;13.80;62.10;;;;;;5032907;28;20053;-72
2021/12/21 06:37:55;;;;;;;4.32;3.20;;;13.70;62.10;;;;;;5031818;28;20129;-72
2021/12/21 06:40:22;;;;;;;4.18;3.05;;;13.80;61.80;;;;;;5043977;28;20143;-72
2021/12/21 06:42:51;;;;;;;4.25;3.03;;;13.80;62.00;;;;;;5051650;28;20053;-72
2021/12/21 06:45:28;;;;;;;4.13;3.10;;;13.70;62.00;;;;;;5051544;28;20080;-72
2021/12/21 06:53:24;;;;;;;;;;;13.80;54.90;;;;;;5032077;28;20053;-72
2021/12/21 06:55:51;;;;;;;5.43;3.10;;;13.90;62.50;;;;;;5031554;28;19999;-72
2021/12/21 06:58:18;;;;;;;4.75;3.20;;;13.30;61.80;;;;;;5031591;28;20077;-72
2021/12/21 07:00:46;;;;;;;4.32;2.88;;;13.70;58.30;;;;;;5031388;28;20136;-72
2021/12/21 07:03:13;;;;;;;5.03;3.10;;;;;;;;;;5030560;28;20049;-72
2021/12/21 07:05:41;;;;;;;4.18;2.95;;;13.50;61.80;;;;;;5040353;28;20057;-72
2021/12/21 07:08:12;;;;;;;4.28;3.05;;;13.80;61.90;;;;;;5051032;28;20655;-72
2021/12/21 07:10:40;;;;;;;4.03;3.15;;;13.80;61.60;;;;;;5051379;28;20057;-72
2021/12/21 07:18:36;;;;;;;4.53;3.30;;;13.80;61.80;;;;;;5050958;28;20052;-72
2021/12/21 07:21:04;;;;;;;4.85;3.00;;;13.70;54.30;;;;;;5051224;28;20065;-71
2021/12/21 07:23:31;;;;;;;4.88;3.03;;;;;;;;;;5049500;28;20057;-72
2021/12/21 07:25:58;;;;;;;4.13;2.92;;;13.90;62.00;;;;;;5050427;28;20114;-72
2021/12/21 07:28:25;;;;;;;5.28;3.05;;;;;;;;;;5051110;28;20143;-71
2021/12/21 07:30:52;;;;;;;3.97;3.03;;;13.80;61.80;;;;;;5051064;28;20087;-72
2021/12/21 07:33:19;;;;;;;5.38;3.42;;;13.70;61.90;;;;;;5050898;28;20512;-70
2021/12/21 07:35:47;;;;;;;5.32;3.45;;;;;;;;;;5050575;28;20060;-70
2021/12/21 07:38:15;;;;;;;4.15;2.85;;;13.80;61.90;;;;;;5050838;28;20053;-70
2021/12/21 07:40:43;;;;;;;3.83;3.08;;;;;;;;;;5049316;28;20081;-70
2021/12/21 07:43:10;;;;;;;5.78;3.30;;;;;;;;;;5050711;28;20063;-70
2021/12/21 07:45:37;;;;;;;5.13;3.15;;;13.80;62.00;;;;;;5050659;28;20136;-70
2021/12/21 07:48:04;;;;;;;4.85;3.35;;;;;;;;;;5050779;28;20144;-70
2021/12/21 07:50:31;;;;;;;5.20;3.13;;;13.70;61.80;;;;;;5050539;28;20084;-71
2021/12/21 07:53:00;;;;;;;6.28;3.20;;;;;;;;;;5052160;28;20485;-71
2021/12/21 07:55:28;;;;;;;4.80;3.20;;;13.80;61.60;;;;;;5047752;28;20072;-70
2021/12/21 07:57:55;;;;;;;4.20;3.20;;;13.60;61.70;;;;;;5030733;28;20144;-70
2021/12/21 08:00:23;;;;;;;3.95;3.00;;;;;;;;;;5029950;28;20133;-71
2021/12/21 08:02:50;;;;;;;4.10;3.20;;;13.70;61.50;;;;;;5030236;28;20188;-70
2021/12/21 08:05:17;;;;;;;5.03;3.08;;;13.80;61.80;;;;;;5030351;28;20095;-74
2021/12/21 08:07:50;;;;;;;4.43;3.10;;;13.70;54.00;;;;;;5030544;28;20152;-74
2021/12/21 08:10:26;;;;;;;4.25;3.15;;;13.90;60.70;;;;;;5030807;28;20068;-74
2021/12/21 08:12:55;;;;;;;4.78;3.22;;;13.80;61.60;;;;;;5036312;28;20506;-74
2021/12/21 08:15:22;;;;;;;7.72;3.53;;;13.90;59.70;;;;;;5053083;28;20049;-73
2021/12/21 08:17:49;;;;;;;4.45;3.10;;;13.90;60.00;;;;;;5054810;28;20143;-73
2021/12/21 08:20:15;;;;;;;4.03;2.80;;;13.80;61.70;;;;;;5054670;28;20080;-73
2021/12/21 08:22:42;;;;;;;11.55;3.55;;;13.80;61.90;;;;;;5054813;28;20053;-73
2021/12/21 08:25:09;;;;;;;6.10;3.05;;;13.70;58.60;;;;;;5054366;28;20076;-73
2021/12/21 08:27:36;;;;;;;8.23;3.30;;;13.90;62.50;;;;;;5054301;28;20480;-73
2021/12/21 08:30:05;;;;;;;7.63;3.60;;;13.30;55.30;;;;;;5045188;28;20477;-73
2021/12/21 08:32:32;;;;;;;9.30;3.65;;;14.10;63.60;;;;;;5035973;28;20136;-73
2021/12/21 08:34:59;;;;;;;7.03;3.50;;;;;;;;;;5054506;28;20144;-73
2021/12/21 08:37:27;;;;;;;7.63;3.38;;;14.10;63.60;;;;;;5053618;28;20132;-73
2021/12/21 08:39:54;;;;;;;8.52;3.50;;;;;;;;;;5036403;28;20054;-73
2021/12/21 08:42:20;;;;;;;7.20;3.42;;;13.60;63.60;;;;;;5033813;28;20496;-73
2021/12/21 08:44:48;;;;;;;6.35;3.45;;;;;;;;;;5033889;28;20124;-73
2021/12/21 08:47:17;;;;;;;8.02;3.60;;;14.10;56.70;;;;;;5031030;28;20064;-73
2021/12/21 08:49:43;;;;;;;6.68;3.55;;;14.00;59.70;;;;;;5036400;28;20429;-69
2021/12/21 08:52:10;;;;;;;10.15;3.80;;;13.80;63.40;;;;;;5034981;28;20132;-69
2021/12/21 08:54:37;;;;;;;6.65;3.45;;;13.70;63.50;;;;;;5035466;28;20128;-69
2021/12/21 08:57:04;;;;;;;7.95;3.35;;;14.00;58.90;;;;;;5034885;28;20128;-72
2021/12/21 08:59:32;;;;;;;6.63;3.83;;;14.10;63.30;;;;;;5034112;28;20139;-68
2021/12/21 09:01:59;;;;;;;6.85;3.42;;;;;;;;;;5035226;28;20049;-74
2021/12/21 09:04:27;;;;;;;5.32;3.10;;;14.20;56.20;;;;;;5052033;28;20148;-73
2021/12/21 09:06:54;;;;;;;4.70;3.10;;;;;;;;;;5053407;28;20052;-73
2021/12/21 09:09:21;;;;;;;8.73;3.40;;;14.30;63.50;;;;;;5053579;28;20132;-72
2021/12/21 09:11:49;;;;;;;6.03;3.22;;;;;;;;;;5053638;28;20542;-72
2021/12/21 09:14:17;;;;;;;5.50;3.50;;;;;;;;;;5053743;28;20049;-73
2021/12/21 09:16:44;;;;;;;5.60;3.40;;;;;;;;;;5053646;28;20068;-73
2021/12/21 09:19:11;;;;;;;8.18;3.63;;;14.30;63.20;;;;;;5049750;28;20095;-72
2021/12/21 09:21:39;;;;;;;5.55;3.20;;;14.30;55.90;;;;;;5033638;28;20128;-72
2021/12/21 09:24:06;;;;;;;5.97;3.35;;;14.30;55.80;;;;;;5033308;28;20132;-73
2021/12/21 09:26:33;;;;;;;5.35;3.30;;;14.40;63.20;;;;;;5032571;28;20135;-72
2021/12/21 09:29:00;;;;;;;5.10;3.35;;;;;;;;;;5033522;28;20085;-74
2021/12/21 09:31:27;;;;;;;8.98;3.47;;;14.30;63.00;;;;;;5033265;28;20113;-72
2021/12/21 09:33:54;;;;;;;5.28;3.38;;;;;;;;;;5033475;28;20131;-72
2021/12/21 09:36:21;;;;;;;4.45;3.40;;;14.50;62.90;;;;;;5035257;28;20140;-72
2021/12/21 09:38:49;;;;;;;5.18;3.47;;;14.30;63.00;;;;;;5033078;28;20077;-72
2021/12/21 09:41:18;;;;;;;6.05;3.38;;;14.40;63.00;;;;;;5033194;28;20193;-72
2021/12/21 09:43:45;;;;;;;4.97;3.42;;;;;;;;;;5032978;28;20059;-72
2021/12/21 09:46:12;;;;;;;4.90;3.53;;;;;;;;;;5033058;28;20132;-72
2021/12/21 09:48:39;;;;;;;6.72;3.28;;;14.10;62.60;;;;;;5032832;28;20447;-72
2021/12/21 09:51:06;;;;;;;7.18;3.55;;;14.40;62.80;;;;;;5032872;28;20136;-72
2021/12/21 09:53:33;;;;;;;5.50;3.20;;;;;;;;;;5034201;28;20148;-72
2021/12/21 09:56:01;;;;;;;4.45;2.97;;;14.40;62.80;;;;;;5032364;28;20056;-72
2021/12/21 09:58:28;;;;;;;5.68;3.25;;;14.30;62.80;;;;;;5032854;28;20144;-72
2021/12/21 10:00:55;;;;;;;5.75;3.40;;;;;;;;;;5032924;28;20088;-72
2021/12/21 10:03:22;;;;;;;4.93;3.40;;;14.40;62.50;;;;;;5032875;28;20510;-72
2021/12/21 10:05:48;;;;;;;3.80;3.13;;;14.40;62.60;;;;;;5032379;28;20049;-72
2021/12/21 10:08:16;;;;;;;5.03;3.22;;;13.90;62.20;;;;;;5033373;28;20132;-73
2021/12/21 10:10:44;;;;;;;4.53;3.40;;;14.40;62.70;;;;;;5032839;28;20061;-72
2021/12/21 10:13:13;;;;;;;5.65;3.55;;;13.90;62.20;;;;;;5032735;28;20160;-72
2021/12/21 10:15:42;;;;;;;6.15;3.17;;;14.20;62.10;;;;;;5032348;28;20553;-72
2021/12/21 10:18:09;;;;;;;4.53;2.97;;;14.40;62.60;;;;;;5032125;28;20534;-72
2021/12/21 10:20:37;;;;;;;5.05;3.15;;;14.40;55.30;;;;;;5032613;28;20132;-73
2021/12/21 10:23:08;;;;;;;4.50;3.25;;;14.40;62.60;;;;;;5032343;28;20451;-72
2021/12/21 10:25:40;;;;;;;5.20;2.97;;;14.10;62.20;;;;;;5033139;28;20132;-72
2021/12/21 10:28:06;;;;;;;4.70;3.22;;;14.50;62.40;;;;;;5032292;28;20140;-72
2021/12/21 10:30:34;;;;;;;4.60;3.03;;;14.70;62.50;;;;;;5031946;28;20132;-72
2021/12/21 10:33:01;;;;;;;4.20;2.83;;;14.50;62.60;;;;;;5032229;28;20469;-72
2021/12/21 10:35:30;;;;;;;4.30;3.13;;;13.90;55.00;;;;;;5032109;28;20533;-69
2021/12/21 10:38:01;;;;;;;4.40;3.47;;;;;;;;;;5031271;28;20486;-72
2021/12/21 10:40:29;;;;;;;24.13;3.90;;;;;;;;;;5032274;28;20115;-74
2021/12/21 10:42:56;;;;;;;5.00;3.40;;;14.50;62.20;;;;;;5032694;28;20061;-72
2021/12/21 10:45:28;;;;;;;5.78;2.95;;;14.40;62.50;;;;;;5031742;28;20049;-75
2021/12/21 10:47:57;;;;;;;4.85;3.22;;;14.50;62.30;;;;;;5033495;28;20084;-72
2021/12/21 10:50:24;;;;;;;4.97;3.22;;;14.10;62.50;;;;;;5031738;28;20130;-72
2021/12/21 10:52:52;;;;;;;4.82;2.90;;;14.40;56.00;;;;;;5031832;28;20059;-73
2021/12/21 10:55:26;;;;;;;6.82;2.95;;;14.40;55.10;;;;;;5031768;28;20101;-73
2021/12/21 10:58:01;;;;;;;5.90;3.00;;;14.30;57.20;;;;;;5037607;28;20178;-72
2021/12/21 11:00:28;;;;;;;4.35;3.03;;;14.60;62.30;;;;;;5032282;28;20338;-72
2021/12/21 11:02:56;;;;;;;3.95;2.80;;;14.40;58.10;;;;;;5031819;28;20140;-73
2021/12/21 11:05:23;;;;;;;2.95;2.42;;;14.40;59.00;;;;;;5035703;28;20076;-73
2021/12/21 11:07:54;;;;;;;4.15;2.63;;;14.50;62.30;;;;;;5030223;28;20599;-73
2021/12/21 11:10:26;;;;;;;4.90;2.72;;;14.50;55.00;;;;;;5032367;28;20136;-72
2021/12/21 11:12:53;;;;;;;5.57;2.90;;;14.50;62.00;;;;;;5042491;28;20053;-72
2021/12/21 11:15:21;;;;;;;3.95;2.67;;;14.00;61.80;;;;;;5030778;28;20132;-74
2021/12/21 11:17:48;;;;;;;5.93;2.90;;;14.50;62.30;;;;;;5043504;28;20141;-74
2021/12/21 11:20:17;;;;;;;3.85;2.50;;;14.50;54.90;;;;;;5030986;28;20550;-73
2021/12/21 11:22:44;;;;;;;4.60;2.67;;;14.50;54.90;;;;;;5031333;28;20080;-72
2021/12/21 11:25:12;;;;;;;4.00;2.63;;;14.20;61.70;;;;;;5032049;28;20057;-74
2021/12/21 11:27:39;;;;;;;6.03;3.00;;;14.50;54.80;;;;;;5042047;28;20124;-74
2021/12/21 11:30:08;;;;;;;4.03;2.80;;;14.50;62.20;;;;;;5030699;28;20050;-75
2021/12/21 11:32:39;;;;;;;3.60;2.45;;;14.50;54.90;;;;;;5030879;28;20637;-75
2021/12/21 11:37:53;;;;;;;5.22;2.78;;;14.50;60.60;;;;;;5027352;28;20041;-75
2021/12/21 11:40:21;;;;;;;3.97;2.50;;;14.20;55.80;;;;;;5028030;28;20077;-74
2021/12/21 11:43:03;;;;;;;3.65;2.60;;;14.30;55.80;;;;;;5048836;28;20148;-74
2021/12/21 11:45:33;;;;;;;4.25;2.67;;;14.50;54.90;;;;;;5050734;28;20136;-74
2021/12/21 11:48:04;;;;;;;7.65;2.97;;;14.60;62.10;;;;;;5038746;28;20432;-75
2021/12/21 11:50:31;;;;;;;3.47;2.33;;;;;;;;;;5030626;28;20140;-75
2021/12/21 11:53:04;;;;;;;5.63;2.97;;;14.60;55.50;;;;;;5030683;28;20136;-75
2021/12/21 11:55:30;;;;;;;13.48;5.43;;;14.70;61.50;;;;;;5032105;28;20129;-75
2021/12/21 11:57:58;;;;;;;22.92;9.38;;;14.70;63.10;;;;;;5030029;28;20059;-75
2021/12/21 12:00:27;;;;;;;16.17;5.88;;;14.70;56.20;;;;;;5027734;28;20136;-74
2021/12/21 12:02:55;;;;;;;13.38;5.93;;;;;;;;;;5029206;28;20072;-73
2021/12/21 12:05:23;;;;;;;10.18;5.35;;;14.80;56.10;;;;;;5028908;28;20053;-75
2021/12/21 12:08:02;;;;;;;8.73;5.13;;;14.30;62.60;;;;;;5029418;28;20132;-75
2021/12/21 12:10:29;;;;;;;9.43;5.43;;;;;;;;;;5031511;28;20460;-74
2021/12/21 12:12:56;;;;;;;11.50;4.68;;;;;;;;;;5027929;28;20172;-75
2021/12/21 12:15:23;;;;;;;8.25;4.90;;;15.40;60.10;;;;;;5029712;28;20128;-74
2021/12/21 12:17:51;;;;;;;9.73;4.55;;;14.80;62.80;;;;;;5030034;28;20136;-75
2021/12/21 12:20:18;;;;;;;6.93;4.55;;;14.20;62.30;;;;;;5030052;28;20144;-75
2021/12/21 12:22:46;;;;;;;8.27;4.38;;;14.30;62.20;;;;;;5029730;28;20053;-75
2021/12/21 12:25:18;;;;;;;6.72;4.32;;;14.70;55.50;;;;;;5029350;28;20117;-74
2021/12/21 12:27:46;;;;;;;6.78;4.00;;;14.70;55.40;;;;;;5026741;28;20136;-74
2021/12/21 12:30:14;;;;;;;5.90;3.63;;;14.70;55.40;;;;;;5030050;28;20053;-74
2021/12/21 12:32:42;;;;;;;5.65;3.58;;;14.70;55.30;;;;;;5027366;28;20128;-74
2021/12/21 12:35:10;;;;;;;5.38;3.28;;;14.10;62.00;;;;;;5029574;28;20078;-74
2021/12/21 12:37:48;;;;;;;6.60;3.88;;;14.70;55.30;;;;;;5029705;28;20449;-74
2021/12/21 12:40:18;;;;;;;6.22;3.60;;;14.70;55.30;;;;;;5030022;28;20132;-74
2021/12/21 12:42:54;;;;;;;6.00;3.30;;;14.70;55.30;;;;;;5025696;28;20054;-74
2021/12/21 12:45:22;;;;;;;6.75;3.40;;;14.70;62.40;;;;;;5029495;28;20079;-75
2021/12/21 12:47:52;;;;;;;5.38;3.50;;;;;;;;;;5029889;28;20144;-75
2021/12/21 12:50:19;;;;;;;4.20;2.97;;;;;;;;;;5029312;28;20080;-74
2021/12/21 12:52:50;;;;;;;8.18;3.13;;;14.80;60.60;;;;;;5031081;28;20056;-74
2021/12/21 12:55:18;;;;;;;5.22;2.85;;;14.60;62.10;;;;;;5031111;28;20148;-74
2021/12/21 12:57:52;;;;;;;6.57;3.05;;;14.70;62.40;;;;;;5030247;28;20081;-76
2021/12/21 13:00:21;;;;;;;5.93;2.67;;;14.70;62.50;;;;;;5027259;28;20053;-72
2021/12/21 13:02:59;;;;;;;5.32;2.90;;;14.70;55.30;;;;;;5033267;28;20053;-71
2021/12/21 13:05:27;;;;;;;3.67;2.60;;;14.70;55.30;;;;;;5033626;28;20085;-74
2021/12/21 13:07:54;;;;;;;3.88;2.67;;;14.40;57.90;;;;;;5033139;28;20053;-74
2021/12/21 13:10:23;;;;;;;6.28;3.15;;;14.70;62.00;;;;;;5035254;28;20129;-73
2021/12/21 13:12:57;;;;;;;6.40;2.90;;;14.50;57.30;;;;;;5048542;28;20041;-75
2021/12/21 13:15:32;;;;;;;5.05;3.00;;;14.80;62.40;;;;;;5043657;28;20140;-75
2021/12/21 13:18:01;;;;;;;4.55;2.50;;;14.80;62.40;;;;;;5033650;28;20499;-76
2021/12/21 13:20:28;;;;;;;5.28;2.80;;;14.20;61.80;;;;;;5034856;28;20063;-76
2021/12/21 13:22:55;;;;;;;6.68;2.72;;;;;;;;;;5033523;28;20077;-73
2021/12/21 13:25:23;;;;;;;5.30;2.88;;;14.90;62.40;;;;;;5033202;28;20081;-73
2021/12/21 13:27:50;;;;;;;5.57;2.75;;;14.80;62.10;;;;;;5032981;28;20550;-74
2021/12/21 13:30:19;;;;;;;7.10;3.00;;;14.70;55.10;;;;;;5034868;28;20049;-73
2021/12/21 13:32:46;;;;;;;7.10;3.03;;;;;;;;;;5032522;28;20049;-72
2021/12/21 13:35:15;;;;;;;9.77;3.60;;;14.70;55.20;;;;;;5033329;28;20133;-73
2021/12/21 13:37:42;;;;;;;12.90;4.97;;;14.80;62.80;;;;;;5033064;28;20140;-71
2021/12/21 13:40:10;;;;;;;13.35;5.28;;;14.70;55.70;;;;;;5033128;28;20587;-71
2021/12/21 13:42:38;;;;;;;14.10;4.90;;;14.80;55.90;;;;;;5034386;28;20132;-72
2021/12/21 13:45:06;;;;;;;14.23;4.82;;;14.80;63.10;;;;;;5053111;28;20132;-72